^^
Grace C. Lehan Memorial Weather Station Historical Data
Daily Summary for January 23, 2021 Units:  Metric    English   Both
Daily Weekly Monthly Yearly
  High: Low: Average:
Temperature: 30.9 °C 17.1 °C 24.2 °C
Dew Point: 20 °C 8.8 °C 17.1 °C
Humidity: 81.2% 50.7% 65%
Wind Speed: 15.3km/h 0km/h 3.9km/h
Wind Gust: 53.1km/h - -
Wind- - WSW
Pressure: 1018.2 hPa 1007.7 hPa -
Precipitation: 0 mm    
 
 
Tabular Data for January 23, 2021
Time Temperature Dew Point Pressure Wind Wind Speed Wind Gust Humidity Rainfall Rate (Hourly) solar
00:09 24.6 °C 16.3 °C 1013.8 hPa WNW 8.4 km/h 22.5 km/h 60% 0 mm 0 W/m2
00:14 24.5 °C 16.2 °C 1013.4 hPa NW 4.7 km/h 22.5 km/h 60% 0 mm 0 W/m2
00:19 24.4 °C 16.2 °C 1013.4 hPa WNW 4.8 km/h 22.5 km/h 60.1% 0 mm 0 W/m2
00:24 24.4 °C 16.4 °C 1013.4 hPa WNW 7.6 km/h 22.5 km/h 61% 0 mm 0 W/m2
00:29 24.3 °C 16.3 °C 1013.4 hPa WNW 3.4 km/h 22.5 km/h 61% 0 mm 0 W/m2
00:34 24.3 °C 16.3 °C 1013.4 hPa WNW 7.1 km/h 22.5 km/h 61% 0 mm 0 W/m2
00:39 24.2 °C 16.2 °C 1013.4 hPa WNW 6.3 km/h 22.5 km/h 61% 0 mm 0 W/m2
00:44 24.2 °C 16.3 °C 1013.4 hPa WNW 7.2 km/h 27.4 km/h 61.6% 0 mm 0 W/m2
00:49 24.1 °C 16.4 °C 1013.4 hPa NW 6.8 km/h 27.4 km/h 62% 0 mm 0 W/m2
00:54 24.1 °C 16.3 °C 1013.4 hPa WNW 6.1 km/h 27.4 km/h 62% 0 mm 0 W/m2
00:59 24 °C 16.4 °C 1013.4 hPa WNW 1.8 km/h 27.4 km/h 62.8% 0 mm 0 W/m2
01:04 23.9 °C 16.4 °C 1013.4 hPa WNW 3.2 km/h 27.4 km/h 63% 0 mm 0 W/m2
01:09 23.8 °C 16.4 °C 1013.4 hPa WNW 6.1 km/h 19.3 km/h 63% 0 mm 0 W/m2
01:14 23.8 °C 16.4 °C 1013.4 hPa NW 5.5 km/h 20.9 km/h 63.1% 0 mm 0 W/m2
01:19 23.7 °C 16.5 °C 1013.4 hPa NW 5.5 km/h 20.9 km/h 63.8% 0 mm 0 W/m2
01:24 23.7 °C 16.5 °C 1013.4 hPa NNW 5 km/h 20.9 km/h 64% 0 mm 0 W/m2
01:29 23.7 °C 16.4 °C 1013.4 hPa NW 2.6 km/h 20.9 km/h 64% 0 mm 0 W/m2
01:34 23.6 °C 16.4 °C 1013.4 hPa NE 0.2 km/h 20.9 km/h 64% 0 mm 0 W/m2
01:39 23.6 °C 16.4 °C 1013.4 hPa NNE 0.3 km/h 6.4 km/h 64% 0 mm 0 W/m2
01:44 23.5 °C 16.5 °C 1013.4 hPa North 0.5 km/h 6.4 km/h 64.9% 0 mm 0 W/m2
01:49 23.4 °C 16.5 °C 1013.4 hPa Calm   6.4 km/h 65% 0 mm 0 W/m2
01:54 23.3 °C 16.4 °C 1013.1 hPa North 0.2 km/h 6.4 km/h 65.1% 0 mm 0 W/m2
01:59 23.3 °C 16.6 °C 1013.1 hPa North 1 km/h 8 km/h 66% 0 mm 0 W/m2
02:04 23.2 °C 16.5 °C 1013.1 hPa NNW 1.3 km/h 8 km/h 66% 0 mm 0 W/m2
02:09 23.1 °C 16.4 °C 1013.1 hPa NW 1.4 km/h 17.7 km/h 66.1% 0 mm 0 W/m2
02:14 23.1 °C 16.6 °C 1013.1 hPa WNW 0.8 km/h 17.7 km/h 67% 0 mm 0 W/m2
02:19 23 °C 16.6 °C 1013.1 hPa NW 0.8 km/h 17.7 km/h 67% 0 mm 0 W/m2
02:24 22.9 °C 16.5 °C 1013.1 hPa Calm   17.7 km/h 67.2% 0 mm 0 W/m2
02:29 22.8 °C 16.6 °C 1012.8 hPa Calm   17.7 km/h 68% 0 mm 0 W/m2
02:34 22.8 °C 16.6 °C 1012.8 hPa NW 1.6 km/h 17.7 km/h 68% 0 mm 0 W/m2
02:39 22.7 °C 16.5 °C 1012.8 hPa Calm   9.7 km/h 68% 0 mm 0 W/m2
02:44 22.6 °C 16.6 °C 1012.8 hPa Calm   9.7 km/h 68.9% 0 mm 0 W/m2
02:49 22.5 °C 16.6 °C 1012.8 hPa Calm   9.7 km/h 69% 0 mm 0 W/m2
02:54 22.4 °C 16.6 °C 1012.8 hPa Calm   9.7 km/h 69.5% 0 mm 0 W/m2
02:59 22.3 °C 16.6 °C 1012.8 hPa NNW 0.5 km/h 9.7 km/h 70% 0 mm 0 W/m2
03:04 22.2 °C 16.6 °C 1012.4 hPa North 0.5 km/h 9.7 km/h 70.1% 0 mm 0 W/m2
03:09 22.2 °C 16.7 °C 1012.4 hPa Calm   6.4 km/h 71% 0 mm 0 W/m2
03:14 22.1 °C 16.6 °C 1012.4 hPa Calm   6.4 km/h 71% 0 mm 0 W/m2
03:19 22.1 °C 16.6 °C 1012.8 hPa North 0.3 km/h 6.4 km/h 71.4% 0 mm 0 W/m2
03:24 22 °C 16.7 °C 1012.8 hPa Calm   6.4 km/h 72% 0 mm 0 W/m2
03:29 21.9 °C 16.7 °C 1012.8 hPa North 0.5 km/h 6.4 km/h 72% 0 mm 0 W/m2
03:34 21.9 °C 16.8 °C 1012.4 hPa Calm   6.4 km/h 72.8% 0 mm 0 W/m2
03:39 21.8 °C 16.8 °C 1012.4 hPa North 0.5 km/h 6.4 km/h 73% 0 mm 0 W/m2
03:44 21.8 °C 16.7 °C 1012.4 hPa Calm   6.4 km/h 73% 0 mm 0 W/m2
03:49 21.7 °C 16.7 °C 1012.4 hPa Calm   6.4 km/h 73.1% 0 mm 0 W/m2
03:54 21.7 °C 16.8 °C 1012.4 hPa Calm   6.4 km/h 74% 0 mm 0 W/m2
03:59 21.6 °C 16.8 °C 1012.4 hPa Calm   6.4 km/h 74% 0 mm 0 W/m2
04:00 21.6 °C 16.7 °C 1012.4 hPa Calm   6.4 km/h 74% 0 mm 0 W/m2
04:09 21.4 °C 16.8 °C 1012.4 hPa Calm     75% 0 mm 0 W/m2
04:14 21.3 °C 16.8 °C 1012.4 hPa Calm     75% 0 mm 0 W/m2
04:19 21.3 °C 16.8 °C 1012.4 hPa Calm     75.5% 0 mm 0 W/m2
04:24 21.2 °C 16.8 °C 1012.4 hPa Calm     76% 0 mm 0 W/m2
04:29 21.1 °C 16.7 °C 1012.4 hPa Calm     76% 0 mm 0 W/m2
04:34 21 °C 16.8 °C 1012.4 hPa Calm     76.7% 0 mm 0 W/m2
04:39 20.9 °C 16.7 °C 1012.4 hPa Calm     77% 0 mm 0 W/m2
04:44 20.8 °C 16.7 °C 1012.4 hPa North 0.2 km/h 4.8 km/h 77.3% 0 mm 0 W/m2
04:49 20.8 °C 16.8 °C 1012.4 hPa Calm   4.8 km/h 78% 0 mm 0 W/m2
04:54 20.7 °C 16.8 °C 1012.4 hPa WNW 0.8 km/h 11.3 km/h 78.4% 0 mm 0 W/m2
04:59 20.7 °C 16.9 °C 1012.1 hPa NW 0.8 km/h 11.3 km/h 79% 0 mm 0 W/m2
05:04 20.7 °C 16.9 °C 1012.1 hPa NW 0.3 km/h 11.3 km/h 79% 0 mm 0 W/m2
05:09 20.6 °C 16.8 °C 1012.1 hPa NW 0.6 km/h 6.4 km/h 79% 0 mm 0 W/m2
05:14 20.6 °C 16.8 °C 1012.1 hPa NW 0.5 km/h 6.4 km/h 79.3% 0 mm 0 W/m2
05:19 20.5 °C 16.9 °C 1012.1 hPa NW 0.3 km/h 8 km/h 80% 0 mm 0 W/m2
05:24 20.5 °C 16.9 °C 1012.1 hPa Calm   8 km/h 80.1% 0 mm 0 W/m2
05:29 20.6 °C 17 °C 1012.1 hPa Calm   8 km/h 80.2% 0 mm 0 W/m2
05:34 20.5 °C 16.9 °C 1012.1 hPa Calm   8 km/h 80% 0 mm 7 W/m2
05:39 20.4 °C 16.9 °C 1012.1 hPa Calm     80.2% 0 mm 11 W/m2
05:44 20.4 °C 17.1 °C 1012.1 hPa WNW 0.8 km/h 8 km/h 81% 0 mm 12 W/m2
05:49 20.4 °C 17.1 °C 1012.1 hPa Calm   8 km/h 81% 0 mm 18 W/m2
05:54 20.5 °C 17.2 °C 1012.1 hPa Calm   8 km/h 81.1% 0 mm 21 W/m2
05:59 20.6 °C 17.2 °C 1012.1 hPa Calm   8 km/h 81.2% 0 mm 25 W/m2
06:04 20.6 °C 17.2 °C 1012.1 hPa Calm   8 km/h 81% 0 mm 30 W/m2
06:09 20.7 °C 17.3 °C 1012.1 hPa Calm     81% 0 mm 28 W/m2
06:14 20.7 °C 17.3 °C 1012.1 hPa Calm     81% 0 mm 30 W/m2
06:19 20.7 °C 17.3 °C 1012.1 hPa Calm     81% 0 mm 32 W/m2
06:24 20.8 °C 17.4 °C 1012.1 hPa WNW 0.2 km/h 4.8 km/h 81% 0 mm 39 W/m2
06:29 20.9 °C 17.5 °C 1012.1 hPa Calm   4.8 km/h 81% 0 mm 42 W/m2
06:34 21.1 °C 17.7 °C 1012.1 hPa Calm   4.8 km/h 81% 0 mm 46 W/m2
06:39 21.4 °C 18 °C 1012.1 hPa Calm     81% 0 mm 46 W/m2
06:44 21.7 °C 18.2 °C 1012.1 hPa Calm     80% 0 mm 49 W/m2
06:49 22.1 °C 18.3 °C 1012.1 hPa Calm     78.8% 0 mm 56 W/m2
06:54 22.6 °C 18.4 °C 1012.1 hPa Calm     77.7% 0 mm 56 W/m2
06:59 22.9 °C 18.6 °C 1012.1 hPa Calm     76.9% 0 mm 70 W/m2
07:04 23.2 °C 18.7 °C 1012.1 hPa Calm     75.9% 0 mm 74 W/m2
07:09 23.7 °C 18.9 °C 1012.1 hPa Calm     74.7% 0 mm 74 W/m2
07:14 24.1 °C 19.1 °C 1012.1 hPa Calm     73.6% 0 mm 130 W/m2
07:19 24.4 °C 19 °C 1012.1 hPa Calm     71.8% 0 mm 211 W/m2
07:24 24.7 °C 19.2 °C 1012.1 hPa Calm     71.2% 0 mm 262 W/m2
07:29 24.9 °C 19.3 °C 1012.1 hPa Calm     70.8% 0 mm 299 W/m2
07:34 25.1 °C 19.2 °C 1012.1 hPa Calm     69.7% 0 mm 315 W/m2
07:39 25.2 °C 19.1 °C 1012.1 hPa Calm     68.7% 0 mm 325 W/m2
07:44 25.4 °C 19.2 °C 1012.1 hPa Calm   1.6 km/h 68.4% 0 mm 348 W/m2
07:49 25.7 °C 19.3 °C 1011.7 hPa Calm   3.2 km/h 68.1% 0 mm 364 W/m2
07:54 25.9 °C 19.5 °C 1012.1 hPa NNW 0.8 km/h 6.4 km/h 67.6% 0 mm 410 W/m2
07:59 26.2 °C 19.5 °C 1012.1 hPa NW 4.7 km/h 19.3 km/h 66.6% 0 mm 446 W/m2
08:00 26.3 °C 19.2 °C 1011.7 hPa NNE 9.2 km/h 19.3 km/h 65% 0 mm 446 W/m2
08:09 26.5 °C 19.5 °C 1011.7 hPa WNW 3.7 km/h 16.1 km/h 65.5% 0 mm 527 W/m2
08:14 26.7 °C 19.4 °C 1011.7 hPa WNW 4.2 km/h 16.1 km/h 64.3% 0 mm 580 W/m2
08:19 26.9 °C 19.7 °C 1011.7 hPa Calm   16.1 km/h 64.5% 0 mm 580 W/m2
08:24 27.1 °C 19.4 °C 1011.7 hPa WNW 6.3 km/h 16.1 km/h 63.1% 0 mm 503 W/m2
08:29 27 °C 19.2 °C 1011.7 hPa NW 5.8 km/h 16.1 km/h 62.4% 0 mm 489 W/m2
08:34 26.9 °C 19.4 °C 1011.7 hPa NW 2.6 km/h 16.1 km/h 63.3% 0 mm 517 W/m2
08:39 27 °C 19.2 °C 1011.4 hPa WNW 6 km/h 24.1 km/h 62.5% 0 mm 524 W/m2
08:44 27.1 °C 19.6 °C 1011.4 hPa WNW 1 km/h 24.1 km/h 63.9% 0 mm 519 W/m2
08:49 27.2 °C 19.4 °C 1011.4 hPa WNW 5.6 km/h 24.1 km/h 62.6% 0 mm 515 W/m2
08:54 27.3 °C 19.2 °C 1011.4 hPa NW 4.7 km/h 24.1 km/h 61.4% 0 mm 545 W/m2
08:59 27.4 °C 19.4 °C 1011.4 hPa WNW 6 km/h 24.1 km/h 61.8% 0 mm 527 W/m2
09:04 27.5 °C 19.3 °C 1011.4 hPa WNW 4.8 km/h 24.1 km/h 61.1% 0 mm 684 W/m2
09:09 27.7 °C 19.4 °C 1011.4 hPa WNW 4 km/h 16.1 km/h 61% 0 mm 636 W/m2
09:14 27.5 °C 19.1 °C 1011.4 hPa NW 6.3 km/h 22.5 km/h 60.1% 0 mm 272 W/m2
09:19 27.2 °C 18.9 °C 1011.4 hPa WNW 7.1 km/h 22.5 km/h 60.8% 0 mm 272 W/m2
09:24 26.8 °C 18.8 °C 1011.4 hPa WNW 5 km/h 22.5 km/h 61.8% 0 mm 193 W/m2
09:29 26.4 °C 18.8 °C 1011.1 hPa West 5.1 km/h 22.5 km/h 62.7% 0 mm 271 W/m2
09:34 26.2 °C 18.7 °C 1011.1 hPa WNW 6.1 km/h 22.5 km/h 63% 0 mm 782 W/m2
09:39 26.4 °C 19.1 °C 1011.1 hPa NW 4.8 km/h 24.1 km/h 64% 0 mm 782 W/m2
09:44 26.6 °C 18.6 °C 1011.1 hPa NW 7.9 km/h 24.1 km/h 61.5% 0 mm 401 W/m2
09:49 26.6 °C 18.6 °C 1011.1 hPa WNW 10 km/h 27.4 km/h 61.6% 0 mm 367 W/m2
09:54 26.6 °C 18.7 °C 1010.7 hPa WNW 5.5 km/h 27.4 km/h 61.8% 0 mm 285 W/m2
09:59 26.5 °C 18.7 °C 1010.4 hPa WNW 4.5 km/h 27.4 km/h 62.1% 0 mm 308 W/m2
10:04 26.5 °C 18.8 °C 1010.4 hPa WNW 5.8 km/h 27.4 km/h 62.5% 0 mm 264 W/m2
10:09 26.7 °C 18.8 °C 1010.4 hPa WNW 9 km/h 24.1 km/h 62.1% 0 mm 264 W/m2
10:14 26.8 °C 18.8 °C 1010.4 hPa NNW 3.9 km/h 24.1 km/h 61.9% 0 mm 838 W/m2
10:19 27.2 °C 19.2 °C 1010.4 hPa WNW 6.8 km/h 30.6 km/h 61.9% 0 mm 844 W/m2
10:24 27.6 °C 19.3 °C 1010.4 hPa NW 6.8 km/h 30.6 km/h 60.6% 0 mm 780 W/m2
10:29 28.1 °C 19.1 °C 1010.4 hPa NW 7.7 km/h 30.6 km/h 58.4% 0 mm 766 W/m2
10:34 28.3 °C 19.1 °C 1010 hPa WNW 5.8 km/h 30.6 km/h 57.2% 0 mm 809 W/m2
10:39 28.6 °C 19.2 °C 1010 hPa WNW 11.1 km/h 30.6 km/h 56.9% 0 mm 796 W/m2
10:44 28.5 °C 19 °C 1010 hPa WNW 7.2 km/h 30.6 km/h 56.4% 0 mm 833 W/m2
10:49 28.6 °C 19.1 °C 1010 hPa WNW 10.3 km/h 30.6 km/h 56.2% 0 mm 846 W/m2
10:54 28.7 °C 18.9 °C 1009.7 hPa WNW 7.9 km/h 30.6 km/h 55.5% 0 mm 868 W/m2
10:59 29 °C 19.5 °C 1009.7 hPa NNW 3.5 km/h 30.6 km/h 56.6% 0 mm 896 W/m2
11:04 29.4 °C 19.6 °C 1009.7 hPa WNW 4.8 km/h 30.6 km/h 55.5% 0 mm 896 W/m2
11:09 29.6 °C 19.6 °C 1009.7 hPa WNW 4.2 km/h 19.3 km/h 54.9% 0 mm 889 W/m2
11:14 29.7 °C 19.6 °C 1009.7 hPa WNW 7.9 km/h 20.9 km/h 54.4% 0 mm 933 W/m2
11:19 29.8 °C 19.4 °C 1009.7 hPa WNW 7.6 km/h 22.5 km/h 53.7% 0 mm 954 W/m2
11:24 29.9 °C 19.8 °C 1009.7 hPa NW 4 km/h 22.5 km/h 54.6% 0 mm 925 W/m2
11:29 30.1 °C 19.2 °C 1009.7 hPa NW 7.7 km/h 22.5 km/h 52.2% 0 mm 837 W/m2
11:34 30.1 °C 19.4 °C 1009.7 hPa NW 4 km/h 22.5 km/h 52.8% 0 mm 831 W/m2
11:39 29.9 °C 19.4 °C 1009.7 hPa NW 5.6 km/h 14.5 km/h 53.4% 0 mm 891 W/m2
11:44 30 °C 19.9 °C 1009.4 hPa NW 3.5 km/h 14.5 km/h 55% 0 mm 891 W/m2
11:49 30.1 °C 19.7 °C 1009.4 hPa WNW 6.3 km/h 16.1 km/h 53.8% 0 mm 896 W/m2
11:54 30.2 °C 19.7 °C 1009.4 hPa NW 4.8 km/h 16.1 km/h 53.5% 0 mm 932 W/m2
11:59 30.3 °C 19.8 °C 1009.4 hPa WNW 2.3 km/h 16.1 km/h 53.3% 0 mm 933 W/m2
12:00 30.4 °C 19.7 °C 1009.4 hPa WNW 0.8 km/h 16.1 km/h 53% 0 mm 911 W/m2
12:09 30.5 °C 19.6 °C 1009.4 hPa WNW 6 km/h 16.1 km/h 52.2% 0 mm 969 W/m2
12:14 30.6 °C 20 °C 1009.4 hPa WNW 7.9 km/h 24.1 km/h 53.3% 0 mm 1041 W/m2
12:19 30.5 °C 19.3 °C 1009.4 hPa WNW 8.2 km/h 24.1 km/h 51.2% 0 mm 492 W/m2
12:24 30.1 °C 18.9 °C 1009.4 hPa WNW 10.1 km/h 29 km/h 51.2% 0 mm 998 W/m2
12:29 30 °C 19.5 °C 1009.4 hPa NW 3.4 km/h 29 km/h 53.4% 0 mm 998 W/m2
12:34 30.2 °C 19.7 °C 1009.4 hPa NW 10.8 km/h 29 km/h 53.3% 0 mm 988 W/m2
12:39 30.3 °C 19.3 °C 1009.4 hPa WNW 10.3 km/h 22.5 km/h 51.8% 0 mm 1095 W/m2
12:44 30.3 °C 19.3 °C 1009.4 hPa WNW 10.9 km/h 27.4 km/h 51.7% 0 mm 1095 W/m2
12:49 30.1 °C 18.7 °C 1009.4 hPa WNW 9.3 km/h 37 km/h 50.7% 0 mm 1011 W/m2
12:51 29.8 °C 18.8 °C 1009.4 hPa WNW 7.6 km/h 37 km/h 51.7% 0 mm 1011 W/m2
13:00 30.1 °C 19.2 °C 1009.4 hPa WNW 9.7 km/h 37 km/h 52% 0 mm 855 W/m2
13:30 30.8 °C 19.6 °C 1009 hPa WNW 6.4 km/h 24.1 km/h 51% 0 mm 932 W/m2
14:30 29.6 °C 19.3 °C 1008.4 hPa WNW 8 km/h 30.6 km/h 54% 0 mm 384 W/m2
15:00 29.6 °C 19.6 °C 1008.4 hPa NW 8 km/h 25.7 km/h 55% 0 mm 296 W/m2
15:30 30.9 °C 19.6 °C 1008 hPa NW 9.7 km/h 33.8 km/h 51% 0 mm 684 W/m2
16:04 30.1 °C 19.5 °C 1007.7 hPa North 7.1 km/h 19.3 km/h 53% 0 mm 306 W/m2
16:09 30.2 °C 19.8 °C 1008 hPa NW 8 km/h 30.6 km/h 53.6% 0 mm 330 W/m2
16:14 30.2 °C 19.2 °C 1008 hPa WNW 14.6 km/h 30.6 km/h 51.8% 0 mm 279 W/m2
16:19 29.9 °C 19.3 °C 1007.7 hPa WNW 7.4 km/h 30.6 km/h 52.9% 0 mm 253 W/m2
16:24 29.8 °C 19.2 °C 1008 hPa WNW 11.1 km/h 32.2 km/h 53% 0 mm 262 W/m2
16:29 29.8 °C 19.2 °C 1007.7 hPa WNW 14.2 km/h 32.2 km/h 53.1% 0 mm 264 W/m2
16:34 29.9 °C 19.1 °C 1008 hPa WNW 15.3 km/h 33.8 km/h 52.5% 0 mm 237 W/m2
16:39 29.9 °C 18.8 °C 1008 hPa NW 14.2 km/h 53.1 km/h 51.2% 0 mm 209 W/m2
16:44 29.8 °C 18.7 °C 1008.4 hPa WNW 15.3 km/h 53.1 km/h 51.3% 0 mm 202 W/m2
16:49 29.7 °C 18.7 °C 1008.4 hPa NW 9.2 km/h 53.1 km/h 51.8% 0 mm 162 W/m2
16:54 29.6 °C 18.8 °C 1008.4 hPa WNW 11.1 km/h 53.1 km/h 52.5% 0 mm 197 W/m2
16:59 29.6 °C 18.9 °C 1008.4 hPa WNW 11.6 km/h 53.1 km/h 52.6% 0 mm 213 W/m2
17:04 29.7 °C 18.9 °C 1008.4 hPa WNW 8.9 km/h 53.1 km/h 52.3% 0 mm 190 W/m2
17:09 29.6 °C 18.7 °C 1008.7 hPa WNW 11.4 km/h 24.1 km/h 52.2% 0 mm 167 W/m2
17:14 29.3 °C 18.4 °C 1008.7 hPa WNW 13.8 km/h 37 km/h 52% 0 mm 149 W/m2
17:19 29.1 °C 18.4 °C 1008.7 hPa NW 13.5 km/h 37 km/h 52.8% 0 mm 134 W/m2
17:24 28.8 °C 18.4 °C 1008.7 hPa NW 8.2 km/h 37 km/h 53.6% 0 mm 139 W/m2
17:29 28.7 °C 18.4 °C 1008.7 hPa NW 9.3 km/h 37 km/h 54% 0 mm 128 W/m2
17:34 28.5 °C 18.3 °C 1008.7 hPa WNW 10.5 km/h 37 km/h 54.2% 0 mm 91 W/m2
17:39 28.3 °C 18.4 °C 1009 hPa NW 9 km/h 32.2 km/h 55% 0 mm 104 W/m2
17:44 28.2 °C 18.4 °C 1009 hPa NNW 6.4 km/h 32.2 km/h 55.5% 0 mm 90 W/m2
17:49 28 °C 19 °C 1009.4 hPa NNE 5.8 km/h 32.2 km/h 58.2% 0 mm 109 W/m2
17:54 27.3 °C 19.4 °C 1009.7 hPa NNE 5.3 km/h 32.2 km/h 62.1% 0 mm 121 W/m2
17:59 26.4 °C 19.4 °C 1010 hPa NE 6.3 km/h 32.2 km/h 65.6% 0 mm 137 W/m2
18:04 25.8 °C 19.4 °C 1010 hPa NNW 5.1 km/h 32.2 km/h 68% 0 mm 107 W/m2
18:09 25.3 °C 19.3 °C 1010 hPa North 4.5 km/h 25.7 km/h 69.7% 0 mm 93 W/m2
18:14 24.9 °C 19.2 °C 1010.4 hPa NNW 6 km/h 25.7 km/h 70.7% 0 mm 102 W/m2
18:19 24.7 °C 19.2 °C 1010.4 hPa North 1.3 km/h 25.7 km/h 71.5% 0 mm 69 W/m2
18:24 24.4 °C 19.2 °C 1010.4 hPa NNW 4.2 km/h 25.7 km/h 72.3% 0 mm 30 W/m2
18:29 24.3 °C 19.1 °C 1010.4 hPa NNW 5 km/h 25.7 km/h 73% 0 mm 62 W/m2
18:34 24.2 °C 19.1 °C 1010.4 hPa NW 3.2 km/h 25.7 km/h 73.4% 0 mm 76 W/m2
18:39 24.2 °C 19.1 °C 1010.7 hPa NW 4 km/h 19.3 km/h 73.3% 0 mm 69 W/m2
18:44 24.3 °C 19.1 °C 1010.7 hPa NW 7.2 km/h 24.1 km/h 72.5% 0 mm 49 W/m2
18:49 24.3 °C 18.9 °C 1011.1 hPa NW 4.5 km/h 24.1 km/h 72% 0 mm 19 W/m2
18:54 24.3 °C 19 °C 1011.1 hPa NW 6.9 km/h 24.1 km/h 72.5% 0 mm 23 W/m2
18:59 24.2 °C 19.2 °C 1011.1 hPa NW 5.8 km/h 24.1 km/h 73.3% 0 mm 32 W/m2
19:04 24.2 °C 19.1 °C 1011.4 hPa NNW 5.3 km/h 24.1 km/h 73.3% 0 mm 35 W/m2
19:09 24.2 °C 18.9 °C 1011.7 hPa NNW 5 km/h 20.9 km/h 72.6% 0 mm 33 W/m2
19:14 24.2 °C 18.9 °C 1011.7 hPa NNW 2.6 km/h 20.9 km/h 72.5% 0 mm 39 W/m2
19:19 24.2 °C 18.4 °C 1012.1 hPa NNW 4.7 km/h 20.9 km/h 70.5% 0 mm 40 W/m2
19:24 24.1 °C 18.5 °C 1012.1 hPa NNW 5.8 km/h 24.1 km/h 70.8% 0 mm 33 W/m2
19:29 24 °C 18.4 °C 1012.1 hPa North 3.7 km/h 24.1 km/h 71% 0 mm 21 W/m2
19:34 23.9 °C 18.3 °C 1012.4 hPa NW 4.2 km/h 24.1 km/h 71% 0 mm 19 W/m2
19:39 23.8 °C 18.2 °C 1012.4 hPa NNW 2.4 km/h 19.3 km/h 71% 0 mm 16 W/m2
19:44 23.7 °C 18 °C 1012.8 hPa NNW 4.3 km/h 22.5 km/h 70.6% 0 mm 12 W/m2
19:49 23.4 °C 17.4 °C 1012.8 hPa ENE 3.2 km/h 22.5 km/h 69.1% 0 mm 11 W/m2
19:54 23.1 °C 16.9 °C 1013.1 hPa ENE 4.2 km/h 22.5 km/h 68.5% 0 mm 9 W/m2
19:59 22.7 °C 16.5 °C 1013.1 hPa ENE 3.1 km/h 22.5 km/h 67.9% 0 mm 7 W/m2
20:04 22.3 °C 16.2 °C 1013.4 hPa NE 2.3 km/h 6.4 km/h 68% 0 mm 0 W/m2
20:09 22.2 °C 15.8 °C 1013.4 hPa ENE 1.4 km/h 16.1 km/h 67.2% 0 mm 0 W/m2
20:14 21.9 °C 15.6 °C 1013.8 hPa NNE 1.4 km/h 16.1 km/h 67.3% 0 mm 0 W/m2
20:19 21.7 °C 15.5 °C 1013.8 hPa NNE 1.4 km/h 16.1 km/h 68% 0 mm 0 W/m2
20:24 21.5 °C 15.3 °C 1014.1 hPa ENE 2.4 km/h 16.1 km/h 68% 0 mm 0 W/m2
20:29 21.2 °C 15 °C 1014.1 hPa ENE 4.8 km/h 24.1 km/h 67.6% 0 mm 0 W/m2
20:34 21 °C 14.7 °C 1014.1 hPa ENE 4.7 km/h 24.1 km/h 67% 0 mm 0 W/m2
20:39 20.8 °C 14.5 °C 1014.4 hPa NE 3.7 km/h 20.9 km/h 67% 0 mm 0 W/m2
20:44 20.7 °C 14.4 °C 1014.4 hPa ENE 3.9 km/h 20.9 km/h 67% 0 mm 0 W/m2
20:49 20.6 °C 14.3 °C 1014.4 hPa NNW 2.7 km/h 20.9 km/h 67% 0 mm 0 W/m2
20:54 20.5 °C 14.2 °C 1014.8 hPa NNW 3.1 km/h 20.9 km/h 67% 0 mm 0 W/m2
20:59 20.4 °C 14.1 °C 1014.8 hPa NNE 1.1 km/h 20.9 km/h 67% 0 mm 0 W/m2
21:04 20.3 °C 13.9 °C 1015.1 hPa NNW 1.4 km/h 20.9 km/h 67% 0 mm 0 W/m2
21:09 20.2 °C 13.8 °C 1015.1 hPa ENE 1.9 km/h 14.5 km/h 66.7% 0 mm 0 W/m2
21:14 20.1 °C 13.8 °C 1015.5 hPa NNE 2.3 km/h 14.5 km/h 67% 0 mm 0 W/m2
21:19 20 °C 13.4 °C 1015.5 hPa North 4.3 km/h 24.1 km/h 66.1% 0 mm 0 W/m2
21:24 19.8 °C 13.3 °C 1015.8 hPa NNW 2.9 km/h 24.1 km/h 66% 0 mm 0 W/m2
21:29 19.8 °C 13.2 °C 1015.8 hPa NNE 1.8 km/h 24.1 km/h 66% 0 mm 0 W/m2
21:34 19.7 °C 13.1 °C 1015.8 hPa ENE 1.3 km/h 24.1 km/h 65.6% 0 mm 0 W/m2
21:39 19.6 °C 13 °C 1016.1 hPa NNE 1 km/h 8 km/h 66% 0 mm 0 W/m2
21:44 19.4 °C 12.9 °C 1016.1 hPa NW 2.9 km/h 16.1 km/h 66% 0 mm 0 W/m2
21:49 19.3 °C 12.8 °C 1016.5 hPa ENE 2.9 km/h 16.1 km/h 66% 0 mm 0 W/m2
21:54 19.2 °C 12.6 °C 1016.5 hPa ENE 2.9 km/h 19.3 km/h 65.4% 0 mm 0 W/m2
21:59 19.1 °C 12.5 °C 1016.5 hPa NNE 1.6 km/h 19.3 km/h 65.6% 0 mm 0 W/m2
22:04 19 °C 12.5 °C 1016.8 hPa NNW 0.6 km/h 19.3 km/h 66% 0 mm 0 W/m2
22:09 18.9 °C 12.4 °C 1016.8 hPa NNE 2.3 km/h 19.3 km/h 66% 0 mm 0 W/m2
22:14 18.8 °C 12.3 °C 1016.8 hPa NNW 1.8 km/h 19.3 km/h 66% 0 mm 0 W/m2
22:19 18.7 °C 12.2 °C 1016.8 hPa NNE 2.3 km/h 22.5 km/h 66% 0 mm 0 W/m2
22:24 18.7 °C 12.2 °C 1016.8 hPa East 1.1 km/h 22.5 km/h 66% 0 mm 0 W/m2
22:29 18.6 °C 12.1 °C 1017.2 hPa North 3.1 km/h 22.5 km/h 66% 0 mm 0 W/m2
22:34 18.4 °C 12 °C 1017.2 hPa North 4 km/h 29 km/h 66% 0 mm 0 W/m2
22:39 18.3 °C 11.9 °C 1017.5 hPa NNW 1.9 km/h 29 km/h 66% 0 mm 0 W/m2
22:44 18.3 °C 11.7 °C 1017.5 hPa NNW 5 km/h 29 km/h 65.6% 0 mm 0 W/m2
22:49 18.2 °C 11.5 °C 1017.5 hPa NE 3.1 km/h 29 km/h 64.9% 0 mm 0 W/m2
22:54 18.1 °C 10.8 °C 1017.5 hPa ENE 2.9 km/h 29 km/h 62.5% 0 mm 0 W/m2
22:59 18.1 °C 10.3 °C 1017.8 hPa NE 2.6 km/h 29 km/h 60.4% 0 mm 0 W/m2
23:04 17.9 °C 9.9 °C 1017.8 hPa NE 3.2 km/h 29 km/h 59.4% 0 mm 0 W/m2
23:09 17.9 °C 9.6 °C 1017.8 hPa ENE 2.4 km/h 17.7 km/h 58.5% 0 mm 0 W/m2
23:14 17.8 °C 9.2 °C 1018.2 hPa ENE 3.5 km/h 17.7 km/h 57.3% 0 mm 0 W/m2
23:19 17.7 °C 9.2 °C 1017.8 hPa NW 1.4 km/h 17.7 km/h 57.1% 0 mm 0 W/m2
23:24 17.7 °C 9.2 °C 1018.2 hPa NNE 2.9 km/h 22.5 km/h 57.3% 0 mm 0 W/m2
23:29 17.6 °C 9.2 °C 1018.2 hPa NE 1.8 km/h 22.5 km/h 57.7% 0 mm 0 W/m2
23:34 17.6 °C 9.1 °C 1018.2 hPa North 0.8 km/h 22.5 km/h 57.7% 0 mm 0 W/m2
23:39 17.4 °C 8.9 °C 1018.2 hPa East 1.1 km/h 17.7 km/h 57.1% 0 mm 0 W/m2
23:44 17.4 °C 9 °C 1018.2 hPa North 0.6 km/h 17.7 km/h 57.8% 0 mm 0 W/m2
23:49 17.3 °C 8.9 °C 1018.2 hPa NE 0.5 km/h 17.7 km/h 58% 0 mm 0 W/m2
23:54 17.2 °C 9.1 °C 1018.2 hPa NNW 1.1 km/h 17.7 km/h 58.7% 0 mm 0 W/m2
23:59 17.1 °C 8.8 °C 1018.2 hPa NNW 0.8 km/h 17.7 km/h 58.2% 0 mm 0 W/m2
Hartford County Weather
Compliments of Weather Underground - 2 mb